Kemp, TX (75143)

5:25 AM CST on February 12, 2016 (GMT -0600)
Cedar Creek Lake (Cedar Knolls Subd) | | Change Station
CLOSE
Current Station
Personal Weather Station
Location: Kemp, TX
Elevation: 371 ft
Nearby Weather Stations

Elev 371 ft 32.35 °N, 96.20 °W | Updated 14 minutes ago

Clear
Clear
43.3 °F
Feels Like 43 °F
N
1.1
Wind Variable Wind from NNE

Today
High -- | Low -- °F
--% Chance of Precip.
Yesterday
High -- | Low -- °F
Precip. -- in
Pressure 30.16 in
Visibility 10.0 miles
Clouds Clear
Windchill 43 °F
Dew Point 40 °F
Humidity 89%
Rainfall 0.00 in
Snow Depth Not available.
7:11 AM 6:08 PM
Waxing Crescent, 19% visible
METAR KTRL 121053Z AUTO 03008KT 10SM CLR 07/04 A3017 RMK AO2 SLP212 T00720039
Pressure 30.16 in
Visibility 10.0 miles
Clouds Clear
Windchill 43 °F
Dew Point 40 °F
Humidity 89%
Rainfall 0.00 in
Snow Depth Not available.
7:11 AM 6:08 PM
Waxing Crescent, 19% visible
METAR KTRL 121053Z AUTO 03008KT 10SM CLR 07/04 A3017 RMK AO2 SLP212 T00720039

10-Day Weather Forecast

Almanac

Astronomy

Feb. 12, 2016 Rise Set
Actual Time
Civil Twilight
Nautical Twilight
Astronomical Twilight
Moon
Length of Visible Light
Length of Day
Tomorrow will be .
, % of the Moon is Illuminated

Today's Extremes

State Highs State Lows

Community

WunderPhotos

Upload Photos

1,892,290 photos uploaded!

WunderBlog® & News

Nearby

Air Quality

  Air Quality AQ Index Pollutant
Not available.

Snow Depth

Station Depth Elevation

Earthquake Activity

City Distance Mag. Time & Date
Minimum magnitude displayed is 2.5.

Coastal Water Temperatures

Place Temperature

Stations

Nearby Weather Stations

Station Location Temp. Windchill Dew Point Humidity Wind Precip. Elev Updated Type
                   

Watches & Warnings

There are currently no watches in effect.